sensor_id;sensor_type;location;lat;lon;timestamp;P1;durP1;ratioP1;P2;durP2;ratioP2
46054;SDS011;31788;6.954;-71.872;2022-11-15T00:00:48;7.50;;;5.22;;
46054;SDS011;31788;6.954;-71.872;2022-11-15T00:03:15;6.30;;;4.43;;
46054;SDS011;31788;6.954;-71.872;2022-11-15T00:05:43;6.22;;;4.35;;
46054;SDS011;31788;6.954;-71.872;2022-11-15T00:08:10;8.00;;;4.15;;
46054;SDS011;31788;6.954;-71.872;2022-11-15T00:10:38;6.03;;;3.63;;
46054;SDS011;31788;6.954;-71.872;2022-11-15T00:13:05;5.78;;;3.80;;
46054;SDS011;31788;6.954;-71.872;2022-11-15T00:15:39;5.40;;;3.60;;
46054;SDS011;31788;6.954;-71.872;2022-11-15T00:18:09;5.40;;;3.78;;
46054;SDS011;31788;6.954;-71.872;2022-11-15T00:20:40;7.60;;;3.80;;
46054;SDS011;31788;6.954;-71.872;2022-11-15T00:23:06;5.10;;;4.20;;
46054;SDS011;31788;6.954;-71.872;2022-11-15T00:25:33;5.13;;;3.63;;
46054;SDS011;31788;6.954;-71.872;2022-11-15T00:28:00;4.88;;;3.35;;
46054;SDS011;31788;6.954;-71.872;2022-11-15T00:30:27;4.45;;;3.63;;
46054;SDS011;31788;6.954;-71.872;2022-11-15T00:32:54;4.65;;;3.45;;
46054;SDS011;31788;6.954;-71.872;2022-11-15T00:35:21;5.50;;;3.50;;
46054;SDS011;31788;6.954;-71.872;2022-11-15T00:37:47;6.47;;;4.00;;
46054;SDS011;31788;6.954;-71.872;2022-11-15T00:40:14;8.20;;;3.70;;
46054;SDS011;31788;6.954;-71.872;2022-11-15T00:42:41;5.55;;;3.30;;
46054;SDS011;31788;6.954;-71.872;2022-11-15T00:45:33;5.80;;;3.50;;
46054;SDS011;31788;6.954;-71.872;2022-11-15T00:48:00;5.50;;;3.50;;
46054;SDS011;31788;6.954;-71.872;2022-11-15T00:50:27;5.50;;;3.75;;
46054;SDS011;31788;6.954;-71.872;2022-11-15T00:52:53;4.40;;;3.47;;
46054;SDS011;31788;6.954;-71.872;2022-11-15T00:55:20;5.65;;;3.55;;
46054;SDS011;31788;6.954;-71.872;2022-11-15T00:57:46;5.75;;;3.80;;
46054;SDS011;31788;6.954;-71.872;2022-11-15T01:00:13;4.78;;;3.75;;
46054;SDS011;31788;6.954;-71.872;2022-11-15T01:02:41;6.03;;;3.97;;
46054;SDS011;31788;6.954;-71.872;2022-11-15T01:05:08;6.40;;;3.97;;
46054;SDS011;31788;6.954;-71.872;2022-11-15T01:07:35;4.73;;;3.83;;
46054;SDS011;31788;6.954;-71.872;2022-11-15T01:10:02;7.50;;;4.10;;
46054;SDS011;31788;6.954;-71.872;2022-11-15T01:12:29;4.32;;;3.55;;
46054;SDS011;31788;6.954;-71.872;2022-11-15T01:14:57;4.47;;;3.60;;
46054;SDS011;31788;6.954;-71.872;2022-11-15T01:17:23;4.93;;;3.72;;
46054;SDS011;31788;6.954;-71.872;2022-11-15T01:19:50;7.60;;;4.00;;
46054;SDS011;31788;6.954;-71.872;2022-11-15T01:22:19;5.68;;;3.63;;
46054;SDS011;31788;6.954;-71.872;2022-11-15T01:24:46;5.97;;;3.47;;
46054;SDS011;31788;6.954;-71.872;2022-11-15T01:27:14;5.45;;;4.00;;
46054;SDS011;31788;6.954;-71.872;2022-11-15T01:29:42;6.68;;;3.80;;
46054;SDS011;31788;6.954;-71.872;2022-11-15T01:32:09;5.57;;;3.67;;
46054;SDS011;31788;6.954;-71.872;2022-11-15T01:34:37;5.25;;;3.60;;
46054;SDS011;31788;6.954;-71.872;2022-11-15T01:37:03;5.63;;;3.40;;
46054;SDS011;31788;6.954;-71.872;2022-11-15T01:39:30;6.93;;;3.40;;
46054;SDS011;31788;6.954;-71.872;2022-11-15T01:41:58;5.00;;;3.58;;
46054;SDS011;31788;6.954;-71.872;2022-11-15T01:44:44;4.50;;;3.20;;
46054;SDS011;31788;6.954;-71.872;2022-11-15T01:47:21;7.75;;;3.15;;
46054;SDS011;31788;6.954;-71.872;2022-11-15T01:49:55;6.10;;;3.58;;
46054;SDS011;31788;6.954;-71.872;2022-11-15T01:52:32;7.97;;;3.40;;
46054;SDS011;31788;6.954;-71.872;2022-11-15T01:55:08;12.33;;;3.50;;
46054;SDS011;31788;6.954;-71.872;2022-11-15T01:57:37;8.20;;;3.10;;
46054;SDS011;31788;6.954;-71.872;2022-11-15T02:00:08;6.50;;;3.03;;
46054;SDS011;31788;6.954;-71.872;2022-11-15T02:02:35;6.80;;;3.20;;
46054;SDS011;31788;6.954;-71.872;2022-11-15T02:05:04;6.13;;;3.20;;
46054;SDS011;31788;6.954;-71.872;2022-11-15T02:07:31;6.45;;;3.10;;
46054;SDS011;31788;6.954;-71.872;2022-11-15T02:10:02;5.40;;;2.70;;
46054;SDS011;31788;6.954;-71.872;2022-11-15T02:12:34;5.28;;;3.08;;
46054;SDS011;31788;6.954;-71.872;2022-11-15T02:15:01;5.70;;;3.00;;
46054;SDS011;31788;6.954;-71.872;2022-11-15T02:17:34;4.45;;;3.03;;
46054;SDS011;31788;6.954;-71.872;2022-11-15T02:26:10;5.00;;;3.13;;
46054;SDS011;31788;6.954;-71.872;2022-11-15T02:32:00;6.53;;;3.85;;
46054;SDS011;31788;6.954;-71.872;2022-11-15T02:34:54;4.55;;;3.45;;
46054;SDS011;31788;6.954;-71.872;2022-11-15T02:40:11;5.63;;;3.37;;
46054;SDS011;31788;6.954;-71.872;2022-11-15T02:42:55;5.60;;;3.50;;
46054;SDS011;31788;6.954;-71.872;2022-11-15T02:45:48;5.95;;;3.20;;
46054;SDS011;31788;6.954;-71.872;2022-11-15T02:48:19;5.57;;;3.10;;
46054;SDS011;31788;6.954;-71.872;2022-11-15T02:50:48;5.40;;;3.03;;
46054;SDS011;31788;6.954;-71.872;2022-11-15T02:53:15;5.28;;;3.05;;
46054;SDS011;31788;6.954;-71.872;2022-11-15T02:55:43;5.05;;;3.33;;
46054;SDS011;31788;6.954;-71.872;2022-11-15T02:58:36;3.58;;;2.85;;
46054;SDS011;31788;6.954;-71.872;2022-11-15T03:01:18;5.40;;;2.90;;
46054;SDS011;31788;6.954;-71.872;2022-11-15T03:04:20;5.53;;;3.00;;
46054;SDS011;31788;6.954;-71.872;2022-11-15T03:09:34;4.03;;;2.83;;
46054;SDS011;31788;6.954;-71.872;2022-11-15T03:12:13;5.55;;;2.80;;
46054;SDS011;31788;6.954;-71.872;2022-11-15T03:14:54;5.60;;;4.05;;
46054;SDS011;31788;6.954;-71.872;2022-11-15T03:17:40;6.25;;;3.55;;
46054;SDS011;31788;6.954;-71.872;2022-11-15T03:20:27;6.53;;;3.60;;
46054;SDS011;31788;6.954;-71.872;2022-11-15T03:22:55;4.68;;;3.35;;
46054;SDS011;31788;6.954;-71.872;2022-11-15T03:25:30;5.95;;;3.33;;
46054;SDS011;31788;6.954;-71.872;2022-11-15T03:28:00;5.22;;;3.47;;
46054;SDS011;31788;6.954;-71.872;2022-11-15T03:30:30;5.72;;;3.53;;
46054;SDS011;31788;6.954;-71.872;2022-11-15T03:33:00;4.30;;;3.10;;
46054;SDS011;31788;6.954;-71.872;2022-11-15T03:35:37;4.07;;;3.30;;
46054;SDS011;31788;6.954;-71.872;2022-11-15T03:38:09;5.72;;;3.28;;
46054;SDS011;31788;6.954;-71.872;2022-11-15T03:40:41;4.50;;;3.50;;
46054;SDS011;31788;6.954;-71.872;2022-11-15T03:45:51;4.18;;;3.05;;
46054;SDS011;31788;6.954;-71.872;2022-11-15T03:48:44;4.93;;;3.55;;
46054;SDS011;31788;6.954;-71.872;2022-11-15T03:51:14;4.50;;;3.13;;
46054;SDS011;31788;6.954;-71.872;2022-11-15T03:53:41;4.80;;;3.20;;
46054;SDS011;31788;6.954;-71.872;2022-11-15T03:56:11;6.40;;;3.10;;
46054;SDS011;31788;6.954;-71.872;2022-11-15T03:58:37;5.33;;;3.10;;
46054;SDS011;31788;6.954;-71.872;2022-11-15T04:01:04;5.38;;;2.80;;
46054;SDS011;31788;6.954;-71.872;2022-11-15T04:03:30;5.38;;;2.83;;
46054;SDS011;31788;6.954;-71.872;2022-11-15T04:05:57;5.80;;;2.90;;
46054;SDS011;31788;6.954;-71.872;2022-11-15T04:08:23;5.55;;;3.05;;
46054;SDS011;31788;6.954;-71.872;2022-11-15T04:10:50;5.22;;;3.20;;
46054;SDS011;31788;6.954;-71.872;2022-11-15T04:13:20;5.68;;;2.95;;
46054;SDS011;31788;6.954;-71.872;2022-11-15T04:15:47;3.53;;;3.08;;
46054;SDS011;31788;6.954;-71.872;2022-11-15T04:18:13;4.30;;;3.00;;
46054;SDS011;31788;6.954;-71.872;2022-11-15T04:20:40;5.57;;;3.00;;
46054;SDS011;31788;6.954;-71.872;2022-11-15T04:23:24;5.45;;;3.08;;
46054;SDS011;31788;6.954;-71.872;2022-11-15T04:26:14;4.47;;;2.88;;
46054;SDS011;31788;6.954;-71.872;2022-11-15T04:28:43;3.90;;;2.95;;
46054;SDS011;31788;6.954;-71.872;2022-11-15T04:31:29;4.90;;;2.90;;
46054;SDS011;31788;6.954;-71.872;2022-11-15T04:33:55;5.57;;;3.00;;
46054;SDS011;31788;6.954;-71.872;2022-11-15T04:36:22;5.80;;;3.22;;
46054;SDS011;31788;6.954;-71.872;2022-11-15T04:39:07;6.18;;;3.15;;
46054;SDS011;31788;6.954;-71.872;2022-11-15T04:41:34;5.20;;;3.28;;
46054;SDS011;31788;6.954;-71.872;2022-11-15T04:44:00;7.40;;;2.90;;
46054;SDS011;31788;6.954;-71.872;2022-11-15T04:46:27;6.20;;;2.90;;
46054;SDS011;31788;6.954;-71.872;2022-11-15T04:48:54;5.30;;;2.90;;
46054;SDS011;31788;6.954;-71.872;2022-11-15T04:51:20;6.00;;;2.72;;
46054;SDS011;31788;6.954;-71.872;2022-11-15T04:53:47;5.40;;;2.78;;
46054;SDS011;31788;6.954;-71.872;2022-11-15T04:56:14;5.05;;;2.58;;
46054;SDS011;31788;6.954;-71.872;2022-11-15T04:58:40;4.47;;;2.80;;
46054;SDS011;31788;6.954;-71.872;2022-11-15T05:01:07;6.20;;;2.50;;
46054;SDS011;31788;6.954;-71.872;2022-11-15T05:03:35;5.40;;;2.83;;
46054;SDS011;31788;6.954;-71.872;2022-11-15T05:06:19;4.50;;;2.35;;
46054;SDS011;31788;6.954;-71.872;2022-11-15T05:08:46;4.75;;;2.60;;
46054;SDS011;31788;6.954;-71.872;2022-11-15T05:11:13;4.05;;;2.30;;
46054;SDS011;31788;6.954;-71.872;2022-11-15T05:13:39;4.97;;;2.40;;
46054;SDS011;31788;6.954;-71.872;2022-11-15T05:16:06;5.10;;;2.60;;
46054;SDS011;31788;6.954;-71.872;2022-11-15T05:18:32;2.95;;;2.20;;
46054;SDS011;31788;6.954;-71.872;2022-11-15T05:21:05;3.90;;;2.45;;
46054;SDS011;31788;6.954;-71.872;2022-11-15T05:23:34;4.43;;;2.20;;
46054;SDS011;31788;6.954;-71.872;2022-11-15T05:26:01;5.35;;;2.28;;
46054;SDS011;31788;6.954;-71.872;2022-11-15T05:28:28;4.60;;;2.67;;
46054;SDS011;31788;6.954;-71.872;2022-11-15T05:31:04;3.10;;;1.90;;
46054;SDS011;31788;6.954;-71.872;2022-11-15T05:33:33;5.18;;;2.58;;
46054;SDS011;31788;6.954;-71.872;2022-11-15T05:38:47;3.70;;;2.20;;
46054;SDS011;31788;6.954;-71.872;2022-11-15T05:41:15;5.40;;;2.90;;
46054;SDS011;31788;6.954;-71.872;2022-11-15T05:43:44;6.45;;;2.28;;
46054;SDS011;31788;6.954;-71.872;2022-11-15T05:46:12;4.50;;;2.30;;
46054;SDS011;31788;6.954;-71.872;2022-11-15T05:48:40;4.75;;;2.30;;
46054;SDS011;31788;6.954;-71.872;2022-11-15T05:51:11;2.72;;;2.00;;
46054;SDS011;31788;6.954;-71.872;2022-11-15T05:53:40;3.20;;;2.17;;
46054;SDS011;31788;6.954;-71.872;2022-11-15T05:56:06;3.10;;;1.90;;
46054;SDS011;31788;6.954;-71.872;2022-11-15T05:58:35;4.22;;;1.90;;
46054;SDS011;31788;6.954;-71.872;2022-11-15T06:01:03;3.38;;;1.80;;
46054;SDS011;31788;6.954;-71.872;2022-11-15T06:03:30;3.10;;;2.00;;
46054;SDS011;31788;6.954;-71.872;2022-11-15T06:05:56;4.95;;;2.10;;
46054;SDS011;31788;6.954;-71.872;2022-11-15T06:08:23;4.18;;;2.00;;
46054;SDS011;31788;6.954;-71.872;2022-11-15T06:10:49;4.17;;;1.90;;
46054;SDS011;31788;6.954;-71.872;2022-11-15T06:13:16;3.60;;;2.10;;
46054;SDS011;31788;6.954;-71.872;2022-11-15T06:15:43;4.47;;;1.92;;
46054;SDS011;31788;6.954;-71.872;2022-11-15T06:18:09;5.50;;;2.20;;
46054;SDS011;31788;6.954;-71.872;2022-11-15T06:20:36;4.30;;;2.30;;
46054;SDS011;31788;6.954;-71.872;2022-11-15T06:23:03;2.13;;;1.77;;
46054;SDS011;31788;6.954;-71.872;2022-11-15T06:25:30;5.20;;;2.00;;
46054;SDS011;31788;6.954;-71.872;2022-11-15T06:27:57;3.03;;;1.90;;
46054;SDS011;31788;6.954;-71.872;2022-11-15T06:30:25;3.30;;;1.83;;
46054;SDS011;31788;6.954;-71.872;2022-11-15T06:33:02;2.60;;;1.63;;
46054;SDS011;31788;6.954;-71.872;2022-11-15T06:35:30;2.05;;;1.67;;
46054;SDS011;31788;6.954;-71.872;2022-11-15T06:38:04;2.15;;;1.50;;
46054;SDS011;31788;6.954;-71.872;2022-11-15T06:40:33;2.85;;;1.77;;
46054;SDS011;31788;6.954;-71.872;2022-11-15T06:43:01;3.58;;;1.50;;
46054;SDS011;31788;6.954;-71.872;2022-11-15T06:45:28;7.15;;;1.90;;
46054;SDS011;31788;6.954;-71.872;2022-11-15T06:47:55;5.50;;;1.80;;
46054;SDS011;31788;6.954;-71.872;2022-11-15T06:50:22;6.40;;;1.87;;
46054;SDS011;31788;6.954;-71.872;2022-11-15T06:52:49;4.40;;;1.60;;
46054;SDS011;31788;6.954;-71.872;2022-11-15T06:55:15;4.60;;;1.80;;
46054;SDS011;31788;6.954;-71.872;2022-11-15T06:57:49;3.03;;;1.70;;
46054;SDS011;31788;6.954;-71.872;2022-11-15T07:00:17;3.17;;;1.80;;
46054;SDS011;31788;6.954;-71.872;2022-11-15T07:02:45;3.55;;;1.80;;
46054;SDS011;31788;6.954;-71.872;2022-11-15T07:05:12;4.07;;;1.90;;
46054;SDS011;31788;6.954;-71.872;2022-11-15T07:07:40;3.67;;;1.83;;
46054;SDS011;31788;6.954;-71.872;2022-11-15T07:10:06;3.28;;;1.80;;
46054;SDS011;31788;6.954;-71.872;2022-11-15T07:12:34;2.55;;;1.75;;
46054;SDS011;31788;6.954;-71.872;2022-11-15T07:15:02;3.72;;;1.80;;
46054;SDS011;31788;6.954;-71.872;2022-11-15T07:17:29;2.90;;;1.77;;
46054;SDS011;31788;6.954;-71.872;2022-11-15T07:19:55;3.38;;;1.70;;
46054;SDS011;31788;6.954;-71.872;2022-11-15T07:22:22;3.75;;;1.60;;
46054;SDS011;31788;6.954;-71.872;2022-11-15T07:24:48;4.95;;;2.20;;
46054;SDS011;31788;6.954;-71.872;2022-11-15T07:27:16;3.40;;;1.70;;
46054;SDS011;31788;6.954;-71.872;2022-11-15T07:29:43;2.67;;;1.73;;
46054;SDS011;31788;6.954;-71.872;2022-11-15T07:32:09;4.72;;;2.10;;
46054;SDS011;31788;6.954;-71.872;2022-11-15T07:34:36;3.50;;;1.88;;
46054;SDS011;31788;6.954;-71.872;2022-11-15T07:37:02;5.03;;;2.00;;
46054;SDS011;31788;6.954;-71.872;2022-11-15T07:39:29;3.00;;;1.80;;
46054;SDS011;31788;6.954;-71.872;2022-11-15T07:41:55;5.00;;;2.13;;
46054;SDS011;31788;6.954;-71.872;2022-11-15T07:44:42;3.50;;;1.83;;
46054;SDS011;31788;6.954;-71.872;2022-11-15T07:47:08;3.17;;;2.10;;
46054;SDS011;31788;6.954;-71.872;2022-11-15T07:49:35;4.07;;;2.00;;
46054;SDS011;31788;6.954;-71.872;2022-11-15T07:52:01;4.35;;;2.00;;
46054;SDS011;31788;6.954;-71.872;2022-11-15T07:54:28;4.78;;;2.10;;
46054;SDS011;31788;6.954;-71.872;2022-11-15T07:56:55;5.53;;;2.15;;
46054;SDS011;31788;6.954;-71.872;2022-11-15T07:59:21;4.60;;;1.90;;
46054;SDS011;31788;6.954;-71.872;2022-11-15T08:01:48;3.35;;;2.10;;
46054;SDS011;31788;6.954;-71.872;2022-11-15T08:04:14;4.70;;;2.10;;
46054;SDS011;31788;6.954;-71.872;2022-11-15T08:06:41;2.85;;;1.92;;
46054;SDS011;31788;6.954;-71.872;2022-11-15T08:09:07;3.90;;;2.00;;
46054;SDS011;31788;6.954;-71.872;2022-11-15T08:11:34;4.47;;;2.10;;
46054;SDS011;31788;6.954;-71.872;2022-11-15T08:14:01;4.60;;;2.10;;
46054;SDS011;31788;6.954;-71.872;2022-11-15T08:16:27;3.58;;;2.22;;
46054;SDS011;31788;6.954;-71.872;2022-11-15T08:18:54;6.18;;;2.67;;
46054;SDS011;31788;6.954;-71.872;2022-11-15T08:21:20;4.10;;;2.07;;
46054;SDS011;31788;6.954;-71.872;2022-11-15T08:23:48;5.00;;;2.23;;
46054;SDS011;31788;6.954;-71.872;2022-11-15T08:26:14;4.38;;;2.33;;
46054;SDS011;31788;6.954;-71.872;2022-11-15T08:28:41;3.40;;;2.20;;
46054;SDS011;31788;6.954;-71.872;2022-11-15T08:31:17;4.53;;;2.55;;
46054;SDS011;31788;6.954;-71.872;2022-11-15T08:33:44;4.03;;;2.40;;
46054;SDS011;31788;6.954;-71.872;2022-11-15T08:36:13;3.65;;;2.33;;
46054;SDS011;31788;6.954;-71.872;2022-11-15T08:38:41;3.30;;;2.42;;
46054;SDS011;31788;6.954;-71.872;2022-11-15T08:41:10;4.70;;;2.37;;
46054;SDS011;31788;6.954;-71.872;2022-11-15T08:44:03;6.70;;;2.60;;
46054;SDS011;31788;6.954;-71.872;2022-11-15T08:46:30;4.43;;;2.85;;
46054;SDS011;31788;6.954;-71.872;2022-11-15T08:48:56;4.57;;;2.80;;
46054;SDS011;31788;6.954;-71.872;2022-11-15T08:51:23;4.82;;;2.63;;
46054;SDS011;31788;6.954;-71.872;2022-11-15T08:53:49;5.75;;;3.10;;
46054;SDS011;31788;6.954;-71.872;2022-11-15T08:56:16;4.43;;;2.60;;
46054;SDS011;31788;6.954;-71.872;2022-11-15T08:58:43;3.67;;;2.58;;
46054;SDS011;31788;6.954;-71.872;2022-11-15T09:01:18;5.75;;;2.80;;
46054;SDS011;31788;6.954;-71.872;2022-11-15T09:03:45;5.20;;;3.17;;
46054;SDS011;31788;6.954;-71.872;2022-11-15T09:06:12;5.03;;;2.90;;
46054;SDS011;31788;6.954;-71.872;2022-11-15T09:08:40;5.03;;;2.92;;
46054;SDS011;31788;6.954;-71.872;2022-11-15T09:11:07;4.78;;;2.85;;
46054;SDS011;31788;6.954;-71.872;2022-11-15T09:13:35;3.97;;;2.70;;
46054;SDS011;31788;6.954;-71.872;2022-11-15T09:16:03;5.80;;;3.00;;
46054;SDS011;31788;6.954;-71.872;2022-11-15T09:18:30;4.95;;;2.90;;
46054;SDS011;31788;6.954;-71.872;2022-11-15T09:20:57;5.03;;;3.00;;
46054;SDS011;31788;6.954;-71.872;2022-11-15T09:23:25;5.30;;;3.00;;
46054;SDS011;31788;6.954;-71.872;2022-11-15T09:25:52;4.82;;;2.83;;
46054;SDS011;31788;6.954;-71.872;2022-11-15T09:28:23;6.80;;;3.00;;
46054;SDS011;31788;6.954;-71.872;2022-11-15T09:30:50;6.40;;;3.00;;
46054;SDS011;31788;6.954;-71.872;2022-11-15T09:33:16;4.70;;;3.10;;
46054;SDS011;31788;6.954;-71.872;2022-11-15T09:35:43;5.50;;;3.10;;
46054;SDS011;31788;6.954;-71.872;2022-11-15T09:38:09;7.10;;;3.05;;
46054;SDS011;31788;6.954;-71.872;2022-11-15T09:40:36;5.35;;;3.00;;
46054;SDS011;31788;6.954;-71.872;2022-11-15T09:48:56;5.13;;;3.40;;
46054;SDS011;31788;6.954;-71.872;2022-11-15T09:54:11;4.83;;;3.30;;
46054;SDS011;31788;6.954;-71.872;2022-11-15T09:57:09;4.23;;;3.33;;
46054;SDS011;31788;6.954;-71.872;2022-11-15T10:04:53;6.15;;;3.30;;
46054;SDS011;31788;6.954;-71.872;2022-11-15T10:07:26;6.32;;;3.40;;
46054;SDS011;31788;6.954;-71.872;2022-11-15T10:12:42;4.70;;;3.40;;
46054;SDS011;31788;6.954;-71.872;2022-11-15T10:15:15;5.38;;;3.60;;
46054;SDS011;31788;6.954;-71.872;2022-11-15T10:20:34;5.78;;;3.63;;
46054;SDS011;31788;6.954;-71.872;2022-11-15T10:23:11;5.57;;;3.50;;
46054;SDS011;31788;6.954;-71.872;2022-11-15T10:25:39;5.82;;;4.00;;
46054;SDS011;31788;6.954;-71.872;2022-11-15T10:30:46;7.07;;;3.53;;
46054;SDS011;31788;6.954;-71.872;2022-11-15T10:38:51;5.75;;;3.65;;
46054;SDS011;31788;6.954;-71.872;2022-11-15T10:41:30;6.73;;;3.60;;
46054;SDS011;31788;6.954;-71.872;2022-11-15T10:46:44;5.40;;;3.30;;
46054;SDS011;31788;6.954;-71.872;2022-11-15T10:49:30;7.50;;;3.58;;
46054;SDS011;31788;6.954;-71.872;2022-11-15T10:54:39;5.22;;;3.35;;
46054;SDS011;31788;6.954;-71.872;2022-11-15T10:57:15;5.40;;;3.33;;
46054;SDS011;31788;6.954;-71.872;2022-11-15T10:59:57;4.32;;;3.47;;
46054;SDS011;31788;6.954;-71.872;2022-11-15T11:05:02;6.30;;;3.70;;
46054;SDS011;31788;6.954;-71.872;2022-11-15T11:07:32;6.20;;;3.50;;
46054;SDS011;31788;6.954;-71.872;2022-11-15T11:10:16;6.63;;;3.10;;
46054;SDS011;31788;6.954;-71.872;2022-11-15T11:12:45;5.00;;;3.50;;
46054;SDS011;31788;6.954;-71.872;2022-11-15T11:15:12;3.75;;;2.85;;
46054;SDS011;31788;6.954;-71.872;2022-11-15T11:20:51;4.43;;;3.20;;
46054;SDS011;31788;6.954;-71.872;2022-11-15T11:31:41;6.88;;;3.58;;
46054;SDS011;31788;6.954;-71.872;2022-11-15T11:43:08;4.22;;;3.10;;
46054;SDS011;31788;6.954;-71.872;2022-11-15T11:48:30;3.78;;;3.15;;
46054;SDS011;31788;6.954;-71.872;2022-11-15T11:54:06;5.13;;;3.60;;
46054;SDS011;31788;6.954;-71.872;2022-11-15T11:56:51;5.70;;;3.47;;
46054;SDS011;31788;6.954;-71.872;2022-11-15T11:59:32;5.18;;;3.40;;
46054;SDS011;31788;6.954;-71.872;2022-11-15T12:02:14;7.35;;;3.42;;
46054;SDS011;31788;6.954;-71.872;2022-11-15T12:04:56;5.88;;;3.38;;
46054;SDS011;31788;6.954;-71.872;2022-11-15T12:07:39;4.63;;;3.30;;
46054;SDS011;31788;6.954;-71.872;2022-11-15T12:12:52;6.57;;;3.53;;
46054;SDS011;31788;6.954;-71.872;2022-11-15T12:15:35;5.20;;;3.37;;
46054;SDS011;31788;6.954;-71.872;2022-11-15T12:18:03;4.43;;;3.38;;
46054;SDS011;31788;6.954;-71.872;2022-11-15T12:20:34;5.05;;;3.50;;
46054;SDS011;31788;6.954;-71.872;2022-11-15T12:23:12;5.53;;;3.30;;
46054;SDS011;31788;6.954;-71.872;2022-11-15T12:34:05;5.18;;;3.10;;
46054;SDS011;31788;6.954;-71.872;2022-11-15T12:36:54;4.10;;;2.97;;
46054;SDS011;31788;6.954;-71.872;2022-11-15T12:39:21;4.78;;;3.35;;
46054;SDS011;31788;6.954;-71.872;2022-11-15T12:44:57;5.68;;;3.40;;
46054;SDS011;31788;6.954;-71.872;2022-11-15T12:47:27;5.20;;;3.60;;
46054;SDS011;31788;6.954;-71.872;2022-11-15T12:49:53;5.20;;;3.60;;
46054;SDS011;31788;6.954;-71.872;2022-11-15T12:52:20;4.40;;;3.35;;
46054;SDS011;31788;6.954;-71.872;2022-11-15T12:54:51;5.20;;;3.30;;
46054;SDS011;31788;6.954;-71.872;2022-11-15T13:02:28;4.70;;;3.45;;
46054;SDS011;31788;6.954;-71.872;2022-11-15T13:13:03;4.10;;;3.30;;
46054;SDS011;31788;6.954;-71.872;2022-11-15T13:20:55;3.78;;;3.10;;
46054;SDS011;31788;6.954;-71.872;2022-11-15T13:23:22;4.35;;;3.10;;
46054;SDS011;31788;6.954;-71.872;2022-11-15T13:28:39;5.03;;;3.10;;
46054;SDS011;31788;6.954;-71.872;2022-11-15T13:33:43;4.90;;;3.30;;
46054;SDS011;31788;6.954;-71.872;2022-11-15T13:36:14;10.55;;;3.60;;
46054;SDS011;31788;6.954;-71.872;2022-11-15T13:38:58;7.15;;;3.22;;
46054;SDS011;31788;6.954;-71.872;2022-11-15T13:41:50;4.80;;;3.20;;
46054;SDS011;31788;6.954;-71.872;2022-11-15T13:44:21;4.65;;;3.20;;
46054;SDS011;31788;6.954;-71.872;2022-11-15T13:47:20;4.35;;;3.30;;
46054;SDS011;31788;6.954;-71.872;2022-11-15T13:49:47;6.22;;;3.05;;
46054;SDS011;31788;6.954;-71.872;2022-11-15T13:52:14;4.47;;;2.90;;
46054;SDS011;31788;6.954;-71.872;2022-11-15T13:57:21;4.32;;;3.20;;
46054;SDS011;31788;6.954;-71.872;2022-11-15T14:02:27;3.70;;;2.80;;
46054;SDS011;31788;6.954;-71.872;2022-11-15T14:05:03;3.65;;;3.00;;
46054;SDS011;31788;6.954;-71.872;2022-11-15T14:11:05;3.97;;;3.08;;
46054;SDS011;31788;6.954;-71.872;2022-11-15T14:13:33;3.33;;;2.70;;
46054;SDS011;31788;6.954;-71.872;2022-11-15T14:18:58;3.67;;;2.90;;
46054;SDS011;31788;6.954;-71.872;2022-11-15T14:21:25;3.65;;;2.80;;
46054;SDS011;31788;6.954;-71.872;2022-11-15T14:23:52;3.33;;;2.83;;
46054;SDS011;31788;6.954;-71.872;2022-11-15T14:26:28;3.75;;;2.83;;
46054;SDS011;31788;6.954;-71.872;2022-11-15T14:31:50;4.00;;;2.83;;
46054;SDS011;31788;6.954;-71.872;2022-11-15T14:34:18;3.00;;;2.60;;
46054;SDS011;31788;6.954;-71.872;2022-11-15T14:36:47;3.83;;;2.70;;
46054;SDS011;31788;6.954;-71.872;2022-11-15T14:39:13;3.17;;;2.57;;
46054;SDS011;31788;6.954;-71.872;2022-11-15T14:41:40;3.97;;;2.90;;
46054;SDS011;31788;6.954;-71.872;2022-11-15T14:44:09;3.88;;;2.80;;
46054;SDS011;31788;6.954;-71.872;2022-11-15T14:46:37;3.53;;;2.60;;
46054;SDS011;31788;6.954;-71.872;2022-11-15T14:49:04;5.13;;;2.72;;
46054;SDS011;31788;6.954;-71.872;2022-11-15T14:51:30;3.80;;;2.58;;
46054;SDS011;31788;6.954;-71.872;2022-11-15T14:53:58;3.22;;;2.70;;
46054;SDS011;31788;6.954;-71.872;2022-11-15T14:56:24;3.55;;;3.10;;
46054;SDS011;31788;6.954;-71.872;2022-11-15T14:58:51;3.03;;;2.70;;
46054;SDS011;31788;6.954;-71.872;2022-11-15T15:01:22;3.63;;;2.55;;
46054;SDS011;31788;6.954;-71.872;2022-11-15T15:03:51;3.10;;;2.50;;
46054;SDS011;31788;6.954;-71.872;2022-11-15T15:06:21;4.68;;;2.70;;
46054;SDS011;31788;6.954;-71.872;2022-11-15T15:08:47;4.05;;;2.72;;
46054;SDS011;31788;6.954;-71.872;2022-11-15T15:11:28;3.38;;;2.50;;
46054;SDS011;31788;6.954;-71.872;2022-11-15T15:13:56;3.60;;;2.90;;
46054;SDS011;31788;6.954;-71.872;2022-11-15T15:16:26;3.20;;;2.60;;
46054;SDS011;31788;6.954;-71.872;2022-11-15T15:18:53;3.22;;;2.60;;
46054;SDS011;31788;6.954;-71.872;2022-11-15T15:21:20;3.55;;;2.65;;
46054;SDS011;31788;6.954;-71.872;2022-11-15T15:23:54;2.95;;;2.50;;
46054;SDS011;31788;6.954;-71.872;2022-11-15T15:26:21;4.10;;;2.60;;
46054;SDS011;31788;6.954;-71.872;2022-11-15T15:28:50;4.97;;;2.70;;
46054;SDS011;31788;6.954;-71.872;2022-11-15T15:31:17;3.60;;;2.75;;
46054;SDS011;31788;6.954;-71.872;2022-11-15T15:33:44;3.90;;;2.72;;
46054;SDS011;31788;6.954;-71.872;2022-11-15T15:36:11;3.50;;;2.53;;
46054;SDS011;31788;6.954;-71.872;2022-11-15T15:38:38;3.97;;;2.77;;
46054;SDS011;31788;6.954;-71.872;2022-11-15T15:41:10;4.72;;;2.80;;
46054;SDS011;31788;6.954;-71.872;2022-11-15T15:43:37;3.20;;;2.50;;
46054;SDS011;31788;6.954;-71.872;2022-11-15T15:46:04;6.10;;;2.90;;
46054;SDS011;31788;6.954;-71.872;2022-11-15T15:48:37;4.47;;;2.90;;
46054;SDS011;31788;6.954;-71.872;2022-11-15T15:51:05;4.72;;;2.70;;
46054;SDS011;31788;6.954;-71.872;2022-11-15T15:53:32;4.82;;;2.85;;
46054;SDS011;31788;6.954;-71.872;2022-11-15T15:56:00;5.03;;;3.17;;
46054;SDS011;31788;6.954;-71.872;2022-11-15T15:58:27;4.40;;;3.10;;
46054;SDS011;31788;6.954;-71.872;2022-11-15T16:00:53;5.67;;;3.10;;
46054;SDS011;31788;6.954;-71.872;2022-11-15T16:03:20;4.40;;;3.00;;
46054;SDS011;31788;6.954;-71.872;2022-11-15T16:05:47;4.90;;;2.92;;
46054;SDS011;31788;6.954;-71.872;2022-11-15T16:08:22;5.65;;;3.05;;
46054;SDS011;31788;6.954;-71.872;2022-11-15T16:10:51;8.63;;;3.40;;
46054;SDS011;31788;6.954;-71.872;2022-11-15T16:13:18;7.05;;;3.42;;
46054;SDS011;31788;6.954;-71.872;2022-11-15T16:15:45;5.07;;;3.20;;
46054;SDS011;31788;6.954;-71.872;2022-11-15T16:18:16;4.82;;;3.45;;
46054;SDS011;31788;6.954;-71.872;2022-11-15T16:20:44;6.40;;;3.88;;
46054;SDS011;31788;6.954;-71.872;2022-11-15T16:23:15;5.43;;;4.10;;
46054;SDS011;31788;6.954;-71.872;2022-11-15T16:25:48;4.50;;;3.83;;
46054;SDS011;31788;6.954;-71.872;2022-11-15T16:28:29;5.80;;;4.03;;
46054;SDS011;31788;6.954;-71.872;2022-11-15T16:34:19;6.28;;;4.10;;
46054;SDS011;31788;6.954;-71.872;2022-11-15T16:36:45;5.53;;;4.30;;
46054;SDS011;31788;6.954;-71.872;2022-11-15T16:39:12;4.82;;;4.30;;
46054;SDS011;31788;6.954;-71.872;2022-11-15T16:41:43;7.10;;;4.82;;
46054;SDS011;31788;6.954;-71.872;2022-11-15T16:44:13;6.50;;;5.10;;
46054;SDS011;31788;6.954;-71.872;2022-11-15T16:46:42;7.78;;;4.95;;
46054;SDS011;31788;6.954;-71.872;2022-11-15T16:49:13;6.03;;;4.93;;
46054;SDS011;31788;6.954;-71.872;2022-11-15T16:51:41;5.70;;;4.90;;
46054;SDS011;31788;6.954;-71.872;2022-11-15T16:54:11;5.97;;;4.90;;
46054;SDS011;31788;6.954;-71.872;2022-11-15T16:56:38;7.10;;;5.00;;
46054;SDS011;31788;6.954;-71.872;2022-11-15T16:59:06;7.55;;;5.20;;
46054;SDS011;31788;6.954;-71.872;2022-11-15T17:01:39;6.32;;;5.03;;
46054;SDS011;31788;6.954;-71.872;2022-11-15T17:04:11;6.32;;;4.93;;
46054;SDS011;31788;6.954;-71.872;2022-11-15T17:06:39;6.05;;;5.10;;
46054;SDS011;31788;6.954;-71.872;2022-11-15T17:09:16;6.47;;;4.82;;